createdAt,value
2016-12-03T00:00:44.989Z,3.1
2016-12-03T00:01:44.958Z,3.02
2016-12-03T00:02:44.610Z,2.93
2016-12-03T00:03:44.568Z,2.82
2016-12-03T00:04:44.825Z,2.79
2016-12-03T00:05:44.785Z,2.63
2016-12-03T00:06:44.744Z,2.56
2016-12-03T00:07:44.700Z,2.52
2016-12-03T00:08:44.361Z,2.43
2016-12-03T00:09:44.616Z,2.34
2016-12-03T00:10:44.576Z,2.41
2016-12-03T00:11:44.234Z,2.34
2016-12-03T00:12:44.193Z,2.21
2016-12-03T00:13:43.847Z,2.3
2016-12-03T00:14:44.108Z,2.28
2016-12-03T00:15:44.079Z,2.34
2016-12-03T00:16:44.032Z,2.27
2016-12-03T00:17:43.985Z,2.24
2016-12-03T00:18:43.945Z,2.18
2016-12-03T00:19:44.205Z,2.18
2016-12-03T00:20:44.167Z,2.18
2016-12-03T00:21:44.123Z,2.18
2016-12-03T00:22:44.082Z,2.24
2016-12-03T00:23:44.042Z,2.17
2016-12-03T00:24:44.004Z,2.16
2016-12-03T00:25:43.957Z,2.17
2016-12-03T00:26:43.921Z,2.16
2016-12-03T00:27:43.876Z,2.14
2016-12-03T00:28:43.837Z,2.21
2016-12-03T00:29:43.491Z,2.24
2016-12-03T00:30:43.755Z,2.25
2016-12-03T00:31:43.709Z,2.23
2016-12-03T00:32:43.366Z,2.25
2016-12-03T00:33:43.625Z,2.16
2016-12-03T00:34:42.980Z,2.3
2016-12-03T00:35:45.525Z,2.25
2016-12-03T00:36:44.991Z,2.18
2016-12-03T00:37:43.160Z,2.2
2016-12-03T00:38:43.420Z,2.25
2016-12-03T00:39:43.381Z,2.27
2016-12-03T00:40:43.335Z,2.27
2016-12-03T00:41:42.990Z,2.28
2016-12-03T00:42:43.252Z,2.34
2016-12-03T00:43:42.912Z,2.24
2016-12-03T00:44:42.870Z,2.34
2016-12-03T00:45:43.157Z,2.24
2016-12-03T00:46:43.092Z,2.36
2016-12-03T00:47:43.053Z,2.25
2016-12-03T00:48:42.710Z,2.34
2016-12-03T00:49:42.665Z,2.24
2016-12-03T00:50:42.618Z,2.3
2016-12-03T00:51:42.584Z,2.27
2016-12-03T00:52:42.841Z,2.35
2016-12-03T00:53:42.806Z,2.38
2016-12-03T00:54:42.458Z,2.34
2016-12-03T00:55:42.425Z,2.39
2016-12-03T00:56:42.679Z,2.41
2016-12-03T00:57:42.633Z,2.43
2016-12-03T00:58:42.594Z,2.48
2016-12-03T00:59:42.559Z,2.45
2016-12-03T01:00:42.510Z,2.48
2016-12-03T01:01:42.175Z,2.48
2016-12-03T01:02:42.430Z,2.48
2016-12-03T01:03:42.086Z,2.45
2016-12-03T01:04:42.353Z,2.54
2016-12-03T01:05:42.306Z,2.56
2016-12-03T01:06:42.268Z,2.59
2016-12-03T01:07:42.221Z,2.67
2016-12-03T01:08:42.186Z,2.75
2016-12-03T01:09:42.140Z,2.89
2016-12-03T01:10:41.796Z,3.05
2016-12-03T01:11:41.757Z,3.24
2016-12-03T01:12:42.020Z,3.48
2016-12-03T01:13:41.676Z,3.52
2016-12-03T01:14:41.934Z,3.61
2016-12-03T01:15:41.898Z,3.73
2016-12-03T01:16:41.852Z,3.8
2016-12-03T01:17:41.815Z,3.91
2016-12-03T01:18:41.468Z,4.04
2016-12-03T01:19:41.732Z,4
2016-12-03T01:20:41.693Z,4.11
2016-12-03T01:21:41.648Z,4.08
2016-12-03T01:22:41.305Z,4.06
2016-12-03T01:23:41.261Z,3.97
2016-12-03T01:24:41.222Z,4.08
2016-12-03T01:25:41.486Z,4.02
2016-12-03T01:26:41.439Z,4
2016-12-03T01:27:41.404Z,4
2016-12-03T01:28:41.361Z,4.02
2016-12-03T01:29:41.019Z,4.04
2016-12-03T01:30:40.973Z,4.02
2016-12-03T01:31:41.238Z,4.02
2016-12-03T01:32:41.197Z,4.08
2016-12-03T01:33:40.852Z,3.96
2016-12-03T01:34:41.114Z,4.02
2016-12-03T01:35:41.072Z,3.97
2016-12-03T01:36:40.727Z,3.9
2016-12-03T01:37:40.989Z,3.9
2016-12-03T01:38:40.650Z,3.9
2016-12-03T01:39:40.606Z,3.9
2016-12-03T01:40:40.866Z,3.93
2016-12-03T01:41:40.521Z,3.93
2016-12-03T01:42:40.789Z,3.9
2016-12-03T01:43:40.741Z,3.84
2016-12-03T01:44:40.703Z,3.86
2016-12-03T01:45:40.663Z,3.87
2016-12-03T01:46:40.627Z,3.93
2016-12-03T01:47:40.579Z,3.83
2016-12-03T01:48:40.538Z,3.86
2016-12-03T01:49:40.497Z,3.83
2016-12-03T01:50:40.459Z,3.9
2016-12-03T01:51:40.412Z,3.9
2016-12-03T01:52:40.377Z,3.83
2016-12-03T01:53:40.040Z,3.87
2016-12-03T01:54:39.988Z,3.84
2016-12-03T01:55:39.946Z,3.86
2016-12-03T01:56:39.905Z,3.87
2016-12-03T01:57:39.870Z,3.84
2016-12-03T01:58:39.830Z,3.86
2016-12-03T01:59:39.782Z,3.9
2016-12-03T02:00:40.043Z,3.8
2016-12-03T02:01:39.708Z,3.86
2016-12-03T02:02:39.659Z,3.86
2016-12-03T02:03:39.617Z,3.84
2016-12-03T02:04:39.889Z,3.91
2016-12-03T02:05:39.840Z,3.86
2016-12-03T02:06:39.793Z,3.84
2016-12-03T02:07:39.757Z,3.86
2016-12-03T02:08:39.413Z,3.83
2016-12-03T02:09:39.673Z,3.79
2016-12-03T02:10:39.327Z,3.88
2016-12-03T02:11:39.588Z,3.84
2016-12-03T02:12:39.244Z,3.83
2016-12-03T02:13:39.507Z,3.79
2016-12-03T02:14:39.468Z,3.79
2016-12-03T02:15:39.124Z,3.73
2016-12-03T02:16:39.383Z,3.83
2016-12-03T02:17:39.347Z,3.8
2016-12-03T02:18:39.299Z,3.84
2016-12-03T02:19:39.274Z,3.73
2016-12-03T02:20:38.618Z,3.87
2016-12-03T02:21:39.190Z,3.69
2016-12-03T02:22:39.133Z,3.7
2016-12-03T02:23:38.792Z,3.76
2016-12-03T02:24:39.055Z,3.72
2016-12-03T02:25:39.011Z,3.83
2016-12-03T02:26:38.973Z,3.72
2016-12-03T02:27:38.929Z,3.73
2016-12-03T02:28:38.585Z,3.76
2016-12-03T02:29:38.854Z,3.69
2016-12-03T02:30:38.503Z,3.75
2016-12-03T02:31:38.764Z,3.75
2016-12-03T02:32:38.420Z,3.78
2016-12-03T02:33:38.680Z,3.76
2016-12-03T02:34:38.351Z,3.75
2016-12-03T02:35:38.603Z,3.79
2016-12-03T02:36:38.259Z,3.73
2016-12-03T02:37:38.519Z,3.7
2016-12-03T02:38:38.473Z,3.66
2016-12-03T02:39:38.437Z,3.68
2016-12-03T02:40:38.093Z,3.62
2016-12-03T02:41:38.050Z,3.66
2016-12-03T02:42:38.014Z,3.66
2016-12-03T02:43:38.274Z,3.73
2016-12-03T02:44:38.235Z,3.69
2016-12-03T02:45:37.883Z,3.65
2016-12-03T02:46:37.843Z,3.57
2016-12-03T02:47:37.500Z,3.6
2016-12-03T02:48:38.065Z,3.65
2016-12-03T02:49:38.023Z,3.72
2016-12-03T02:50:37.701Z,3.65
2016-12-03T02:51:37.943Z,3.65
2016-12-03T02:52:37.601Z,3.6
2016-12-03T02:53:37.560Z,3.62
2016-12-03T02:54:37.217Z,3.65
2016-12-03T02:55:37.472Z,3.69
2016-12-03T02:56:37.729Z,3.61
2016-12-03T02:57:37.389Z,3.7
2016-12-03T02:58:37.658Z,3.65
2016-12-03T02:59:37.313Z,3.58
2016-12-03T03:00:37.576Z,3.58
2016-12-03T03:01:37.534Z,3.58
2016-12-03T03:02:37.494Z,3.43
2016-12-03T03:03:37.445Z,3.43
2016-12-03T03:04:37.402Z,3.33
2016-12-03T03:05:37.363Z,3.36
2016-12-03T03:06:37.318Z,3.32
2016-12-03T03:07:36.677Z,3.26
2016-12-03T03:08:37.237Z,3.24
2016-12-03T03:09:37.194Z,3.26
2016-12-03T03:10:37.156Z,3.26
2016-12-03T03:11:37.113Z,3.29
2016-12-03T03:12:36.768Z,3.24
2016-12-03T03:13:37.038Z,3.2
2016-12-03T03:14:36.993Z,3.24
2016-12-03T03:15:36.949Z,3.21
2016-12-03T03:16:36.906Z,3.24
2016-12-03T03:17:36.868Z,3.2
2016-12-03T03:18:36.825Z,3.21
2016-12-03T03:19:36.487Z,3.21
2016-12-03T03:20:36.747Z,3.24
2016-12-03T03:21:36.702Z,3.2
2016-12-03T03:22:36.660Z,3.26
2016-12-03T03:23:36.619Z,3.2
2016-12-03T03:24:36.277Z,3.24
2016-12-03T03:25:36.235Z,3.23
2016-12-03T03:26:36.493Z,3.26
2016-12-03T03:27:36.151Z,3.21
2016-12-03T03:28:35.809Z,3.17
2016-12-03T03:29:36.072Z,3.2
2016-12-03T03:30:35.733Z,3.23
2016-12-03T03:31:36.286Z,3.21
2016-12-03T03:32:35.945Z,3.28
2016-12-03T03:33:36.212Z,3.23
2016-12-03T03:34:35.863Z,3.23
2016-12-03T03:35:36.135Z,3.18
2016-12-03T03:36:35.779Z,3.31
2016-12-03T03:37:36.038Z,3.33
2016-12-03T03:38:35.995Z,3.31
2016-12-03T03:39:35.655Z,3.36
2016-12-03T03:40:35.927Z,3.36
2016-12-03T03:41:35.873Z,3.36
2016-12-03T03:42:35.830Z,3.35
2016-12-03T03:43:35.788Z,3.48
2016-12-03T03:44:35.747Z,3.4
2016-12-03T03:45:35.706Z,3.33
2016-12-03T03:46:35.367Z,3.43
2016-12-03T03:47:35.624Z,3.32
2016-12-03T03:48:35.580Z,3.48
2016-12-03T03:49:35.546Z,3.39
2016-12-03T03:50:35.195Z,3.4
2016-12-03T03:51:35.457Z,3.39
2016-12-03T03:52:35.422Z,3.48
2016-12-03T03:53:35.378Z,3.36
2016-12-03T03:54:34.731Z,3.42
2016-12-03T03:55:35.293Z,3.35
2016-12-03T03:56:35.244Z,3.42
2016-12-03T03:57:34.908Z,3.48
2016-12-03T03:58:34.863Z,3.36
2016-12-03T03:59:35.130Z,3.45
2016-12-03T04:00:35.091Z,3.35
2016-12-03T04:01:35.043Z,3.36
2016-12-03T04:02:35.000Z,3.42
2016-12-03T04:03:34.655Z,3.39
2016-12-03T04:04:34.615Z,3.35
2016-12-03T04:05:34.874Z,3.4
2016-12-03T04:06:34.531Z,3.43
2016-12-03T04:07:34.488Z,3.42
2016-12-03T04:08:34.751Z,3.45
2016-12-03T04:09:34.406Z,3.5
2016-12-03T04:10:34.668Z,3.5
2016-12-03T04:11:34.625Z,3.39
2016-12-03T04:12:34.585Z,3.4
2016-12-03T04:13:34.547Z,3.51
2016-12-03T04:14:34.200Z,3.48
2016-12-03T04:15:34.461Z,3.4
2016-12-03T04:16:33.813Z,3.45
2016-12-03T04:17:33.772Z,3.45
2016-12-03T04:18:34.336Z,3.43
2016-12-03T04:19:33.992Z,3.45
2016-12-03T04:20:34.248Z,3.45
2016-12-03T04:21:33.909Z,3.45
2016-12-03T04:22:34.171Z,3.47
2016-12-03T04:23:34.128Z,3.5
2016-12-03T04:24:33.785Z,3.48
2016-12-03T04:25:34.059Z,3.45
2016-12-03T04:26:34.001Z,3.51
2016-12-03T04:27:33.958Z,3.42
2016-12-03T04:28:33.921Z,3.36
2016-12-03T04:29:33.882Z,3.42
2016-12-03T04:30:33.845Z,3.42
2016-12-03T04:31:33.794Z,3.35
2016-12-03T04:32:33.457Z,3.36
2016-12-03T04:33:33.413Z,3.29
2016-12-03T04:34:33.367Z,3.32
2016-12-03T04:35:33.632Z,3.17
2016-12-03T04:36:33.589Z,3.24
2016-12-03T04:37:33.549Z,3.26
2016-12-03T04:38:33.207Z,3.14
2016-12-03T04:39:33.465Z,3.14
2016-12-03T04:40:33.422Z,3.08
2016-12-03T04:41:33.381Z,3.14
2016-12-03T04:42:33.037Z,3.14
2016-12-03T04:43:32.996Z,3.03
2016-12-03T04:44:33.257Z,3.1
2016-12-03T04:45:33.212Z,3.05
2016-12-03T04:46:32.899Z,2.95
2016-12-03T04:47:33.132Z,2.85
2016-12-03T04:48:33.090Z,2.9
2016-12-03T04:49:33.046Z,2.95
2016-12-03T04:50:33.009Z,2.9
2016-12-03T04:51:32.969Z,2.99
2016-12-03T04:52:32.933Z,2.97
2016-12-03T04:53:32.579Z,2.97
2016-12-03T04:54:32.843Z,3.05
2016-12-03T04:55:32.196Z,3.03
2016-12-03T04:56:32.762Z,2.97
2016-12-03T04:57:32.719Z,2.99
2016-12-03T04:58:32.377Z,2.92
2016-12-03T04:59:32.640Z,2.96
2016-12-03T05:00:32.593Z,2.9
2016-12-03T05:01:32.553Z,2.89
2016-12-03T05:02:32.213Z,2.95
2016-12-03T05:03:32.469Z,3
2016-12-03T05:04:32.451Z,2.9
2016-12-03T05:05:32.390Z,2.9
2016-12-03T05:06:32.350Z,2.96
2016-12-03T05:07:32.302Z,2.95
2016-12-03T05:08:32.262Z,2.97
2016-12-03T05:09:31.919Z,2.97
2016-12-03T05:10:32.182Z,2.97
2016-12-03T05:11:31.831Z,3
2016-12-03T05:12:31.797Z,2.96
2016-12-03T05:13:31.752Z,2.99
2016-12-03T05:14:32.010Z,3.03
2016-12-03T05:15:31.667Z,3.03
2016-12-03T05:16:31.933Z,2.99
2016-12-03T05:17:31.587Z,3.05
2016-12-03T05:18:31.542Z,3
2016-12-03T05:19:31.804Z,3
2016-12-03T05:20:31.767Z,3
2016-12-03T05:21:31.449Z,2.99
2016-12-03T05:22:31.086Z,3.05
2016-12-03T05:23:31.651Z,2.95
2016-12-03T05:24:31.294Z,2.99
2016-12-03T05:25:31.558Z,3.05
2016-12-03T05:26:31.209Z,3.05
2016-12-03T05:27:31.182Z,2.97
2016-12-03T05:28:31.126Z,3.02
2016-12-03T05:29:31.395Z,3.02
2016-12-03T05:30:31.351Z,3.03
2016-12-03T05:31:30.706Z,3.05
2016-12-03T05:32:31.262Z,3.08
2016-12-03T05:33:30.959Z,2.99
2016-12-03T05:34:31.181Z,3
2016-12-03T05:35:31.146Z,2.99
2016-12-03T05:36:31.098Z,3.06
2016-12-03T05:37:30.755Z,3.06
2016-12-03T05:38:31.020Z,3.03
2016-12-03T05:39:30.671Z,3.05
2016-12-03T05:40:30.931Z,2.95
2016-12-03T05:41:30.590Z,3.06
2016-12-03T05:42:30.548Z,3
2016-12-03T05:43:30.509Z,3
2016-12-03T05:44:30.770Z,3.02
2016-12-03T05:45:30.423Z,3.02
2016-12-03T05:46:30.685Z,2.96
2016-12-03T05:47:30.642Z,2.92
2016-12-03T05:48:30.301Z,2.81
2016-12-03T05:49:30.558Z,2.85
2016-12-03T05:50:30.517Z,2.89
2016-12-03T05:51:30.179Z,2.84
2016-12-03T05:52:30.437Z,2.89
2016-12-03T05:53:30.393Z,2.84
2016-12-03T05:54:30.057Z,2.82
2016-12-03T05:55:30.309Z,2.89
2016-12-03T05:56:30.269Z,2.79
2016-12-03T05:57:30.228Z,2.92
2016-12-03T05:58:30.188Z,2.93
2016-12-03T05:59:30.143Z,2.89
2016-12-03T06:00:29.809Z,2.89
2016-12-03T06:01:29.762Z,2.82
2016-12-03T06:02:30.018Z,2.89
2016-12-03T06:03:29.378Z,2.89
2016-12-03T06:04:29.641Z,2.84
2016-12-03T06:05:29.894Z,2.79
2016-12-03T06:06:29.554Z,2.78
2016-12-03T06:07:29.824Z,2.84
2016-12-03T06:08:29.474Z,2.84
2016-12-03T06:09:29.735Z,2.81
2016-12-03T06:10:29.389Z,2.77
2016-12-03T06:11:29.346Z,2.74
2016-12-03T06:12:29.606Z,2.72
2016-12-03T06:13:29.271Z,2.69
2016-12-03T06:14:28.926Z,2.61
2016-12-03T06:15:29.481Z,2.56
2016-12-03T06:16:29.448Z,2.53
2016-12-03T06:17:29.396Z,2.57
2016-12-03T06:18:29.358Z,2.57
2016-12-03T06:19:29.029Z,2.45
2016-12-03T06:20:29.275Z,2.48
2016-12-03T06:21:29.231Z,2.35
2016-12-03T06:22:28.590Z,2.39
2016-12-03T06:23:29.162Z,2.35
2016-12-03T06:24:29.108Z,2.41
2016-12-03T06:25:28.763Z,2.36
2016-12-03T06:26:29.028Z,2.2
2016-12-03T06:27:28.681Z,2.17
2016-12-03T06:28:28.639Z,2.05
2016-12-03T06:29:28.900Z,2.1
2016-12-03T06:30:28.560Z,2.02
2016-12-03T06:31:28.814Z,2.02
2016-12-03T06:32:28.779Z,2.06
2016-12-03T06:33:28.432Z,2.07
2016-12-03T06:34:28.695Z,2.05
2016-12-03T06:35:28.352Z,2.03
2016-12-03T06:36:28.615Z,2
2016-12-03T06:37:28.571Z,2.05
2016-12-03T06:38:28.229Z,1.95
2016-12-03T06:39:28.481Z,1.95
2016-12-03T06:40:28.139Z,1.9
2016-12-03T06:41:28.412Z,1.87
2016-12-03T06:42:28.355Z,1.83
2016-12-03T06:43:27.710Z,1.81
2016-12-03T06:44:28.275Z,1.81
2016-12-03T06:45:28.230Z,1.83
2016-12-03T06:46:28.191Z,1.88
2016-12-03T06:47:28.156Z,1.84
2016-12-03T06:48:28.108Z,1.95
2016-12-03T06:49:28.063Z,1.88
2016-12-03T06:50:28.022Z,1.95
2016-12-03T06:51:27.980Z,2
2016-12-03T06:52:27.941Z,1.98
2016-12-03T06:53:27.900Z,1.91
2016-12-03T06:54:27.867Z,1.87
2016-12-03T06:55:27.811Z,1.84
2016-12-03T06:56:27.776Z,1.83
2016-12-03T06:57:27.730Z,1.81
2016-12-03T06:58:27.689Z,1.8
2016-12-03T06:59:27.348Z,1.86
2016-12-03T07:00:27.301Z,1.79
2016-12-03T07:01:27.571Z,1.77
2016-12-03T07:02:27.521Z,1.77
2016-12-03T07:03:27.479Z,1.81
2016-12-03T07:04:27.142Z,1.8
2016-12-03T07:05:26.787Z,1.81
2016-12-03T07:06:26.756Z,1.68
2016-12-03T07:07:27.309Z,1.69
2016-12-03T07:08:26.682Z,1.8
2016-12-03T07:09:27.225Z,1.81
2016-12-03T07:10:26.884Z,1.86
2016-12-03T07:11:27.149Z,1.9
2016-12-03T07:12:26.801Z,1.81
2016-12-03T07:13:27.058Z,1.8
2016-12-03T07:14:26.713Z,1.73
2016-12-03T07:15:26.980Z,1.8
2016-12-03T07:16:26.631Z,1.8
2016-12-03T07:17:26.890Z,1.87
2016-12-03T07:18:26.847Z,1.84
2016-12-03T07:19:26.811Z,2.02
2016-12-03T07:20:26.764Z,1.93
2016-12-03T07:21:26.724Z,1.95
2016-12-03T07:22:26.679Z,1.86
2016-12-03T07:23:26.634Z,1.83
2016-12-03T07:24:26.595Z,1.86
2016-12-03T07:25:25.950Z,1.76
2016-12-03T07:26:26.512Z,1.81
2016-12-03T07:27:26.171Z,1.83
2016-12-03T07:28:26.429Z,1.83
2016-12-03T07:29:25.788Z,1.69
2016-12-03T07:30:26.048Z,1.83
2016-12-03T07:31:26.303Z,1.76
2016-12-03T07:32:25.966Z,1.87
2016-12-03T07:33:25.916Z,1.95
2016-12-03T07:34:25.578Z,1.98
2016-12-03T07:35:25.833Z,1.9
2016-12-03T07:36:25.789Z,1.99
2016-12-03T07:37:25.758Z,1.9
2016-12-03T07:38:25.708Z,1.86
2016-12-03T07:39:25.963Z,1.83
2016-12-03T07:40:25.953Z,1.81
2016-12-03T07:41:25.577Z,1.73
2016-12-03T07:42:25.842Z,1.73
2016-12-03T07:43:25.797Z,1.66
2016-12-03T07:44:25.753Z,1.69
2016-12-03T07:45:25.713Z,1.69
2016-12-03T07:46:25.674Z,1.62
2016-12-03T07:47:25.336Z,1.65
2016-12-03T07:48:25.583Z,1.65
2016-12-03T07:49:25.543Z,1.62
2016-12-03T07:50:25.204Z,1.65
2016-12-03T07:51:25.458Z,1.65
2016-12-03T07:52:25.420Z,1.65
2016-12-03T07:53:25.377Z,1.62
2016-12-03T07:54:25.335Z,1.65
2016-12-03T07:55:24.688Z,1.55
2016-12-03T07:56:24.947Z,1.59
2016-12-03T07:57:25.205Z,1.62
2016-12-03T07:58:25.167Z,1.55
2016-12-03T07:59:25.125Z,1.58
2016-12-03T08:00:24.790Z,1.59
2016-12-03T08:01:24.749Z,1.63
2016-12-03T08:02:25.000Z,1.59
2016-12-03T08:03:24.654Z,1.69
2016-12-03T08:04:24.917Z,1.66
2016-12-03T08:05:24.877Z,1.58
2016-12-03T08:06:24.527Z,1.66
2016-12-03T08:07:24.791Z,1.63
2016-12-03T08:08:24.750Z,1.66
2016-12-03T08:09:24.707Z,1.69
2016-12-03T08:10:24.359Z,1.76
2016-12-03T08:11:24.619Z,1.77
2016-12-03T08:12:24.276Z,1.77
2016-12-03T08:13:24.538Z,1.73
2016-12-03T08:14:24.195Z,1.7
2016-12-03T08:15:24.455Z,1.72
2016-12-03T08:16:24.414Z,1.76
2016-12-03T08:17:24.368Z,1.79
2016-12-03T08:18:23.725Z,1.8
2016-12-03T08:19:24.287Z,1.73
2016-12-03T08:20:23.638Z,1.79
2016-12-03T08:21:23.902Z,1.73
2016-12-03T08:22:24.156Z,1.79
2016-12-03T08:23:23.510Z,1.81
2016-12-03T08:24:23.798Z,1.88
2016-12-03T08:25:24.033Z,1.9
2016-12-03T08:26:23.693Z,1.93
2016-12-03T08:27:24.153Z,1.91
2016-12-03T08:28:23.607Z,1.95
2016-12-03T08:29:23.565Z,1.95
2016-12-03T08:30:23.821Z,1.98
2016-12-03T08:31:23.484Z,1.98
2016-12-03T08:32:23.738Z,1.99
2016-12-03T08:33:23.696Z,1.9
2016-12-03T08:34:23.652Z,2.02
2016-12-03T08:35:23.614Z,1.99
2016-12-03T08:36:23.574Z,1.95
2016-12-03T08:37:23.526Z,2.02
2016-12-03T08:38:23.192Z,2.03
2016-12-03T08:39:23.139Z,2.05
2016-12-03T08:40:23.100Z,2.1
2016-12-03T08:41:23.390Z,2.12
2016-12-03T08:42:23.318Z,2.2
2016-12-03T08:43:23.273Z,2.2
2016-12-03T08:44:23.232Z,2.3
2016-12-03T08:45:23.191Z,2.31
2016-12-03T08:46:22.845Z,2.28
2016-12-03T08:47:23.100Z,2.45
2016-12-03T08:48:23.067Z,2.48
2016-12-03T08:49:23.021Z,2.45
2016-12-03T08:50:22.387Z,2.46
2016-12-03T08:51:22.937Z,2.53
2016-12-03T08:52:22.595Z,2.53
2016-12-03T08:53:22.856Z,2.52
2016-12-03T08:54:22.822Z,2.59
2016-12-03T08:55:22.773Z,2.69
2016-12-03T08:56:22.739Z,2.72
2016-12-03T08:57:22.686Z,2.92
2016-12-03T08:58:22.647Z,3.17
2016-12-03T08:59:22.611Z,3.35
2016-12-03T09:00:22.570Z,3.79
2016-12-03T09:01:22.530Z,4.52
2016-12-03T09:02:22.483Z,5.54
2016-12-03T09:03:22.445Z,6.21
2016-12-03T09:04:22.400Z,7.03
2016-12-03T09:05:22.061Z,7.39
2016-12-03T09:06:22.325Z,7.83
2016-12-03T09:07:21.987Z,7.79
2016-12-03T09:08:21.931Z,7.83
2016-12-03T09:09:22.198Z,7.9
2016-12-03T09:10:22.157Z,8.38
2016-12-03T09:11:22.122Z,8.71
2016-12-03T09:12:22.082Z,8.99
2016-12-03T09:13:22.042Z,9.18
2016-12-03T09:14:22.007Z,9.83
2016-12-03T09:15:21.964Z,9.91
2016-12-03T09:16:21.931Z,9.83
2016-12-03T09:17:21.593Z,9.05
2016-12-03T09:18:21.886Z,8.92
2016-12-03T09:19:21.826Z,8.7
2016-12-03T09:20:21.789Z,8.59
2016-12-03T09:21:21.456Z,8.87
2016-12-03T09:22:21.719Z,9.26
2016-12-03T09:23:21.682Z,9.65
2016-12-03T09:24:21.656Z,9.93
2016-12-03T09:25:21.319Z,9.71
2016-12-03T09:26:21.292Z,9.54
2016-12-03T09:27:21.545Z,9.36
2016-12-03T09:28:20.932Z,8.91
2016-12-03T09:29:21.482Z,8.41
2016-12-03T09:30:21.449Z,8.55
2016-12-03T09:31:21.115Z,8.81
2016-12-03T09:32:21.382Z,9.24
2016-12-03T09:33:20.746Z,9.26
2016-12-03T09:34:21.317Z,8.74
2016-12-03T09:35:21.285Z,8.7
2016-12-03T09:36:21.256Z,9.05
2016-12-03T09:37:21.221Z,8.87
2016-12-03T09:38:20.882Z,8.61
2016-12-03T09:39:20.851Z,8.22
2016-12-03T09:40:21.120Z,7.85
2016-12-03T09:41:21.086Z,7.85
2016-12-03T09:42:21.054Z,7.86
2016-12-03T09:43:20.720Z,7.49
2016-12-03T09:44:20.993Z,7.06
2016-12-03T09:45:20.968Z,6.69
2016-12-03T09:46:20.924Z,6.37
2016-12-03T09:47:20.282Z,6.54
2016-12-03T09:48:20.554Z,7.2
2016-12-03T09:49:20.843Z,7.9
2016-12-03T09:50:20.787Z,8.33
2016-12-03T09:51:20.755Z,8.44
2016-12-03T09:52:20.723Z,7.93
2016-12-03T09:53:20.392Z,7.32
2016-12-03T09:54:20.353Z,6.85
2016-12-03T09:55:20.616Z,6.76
2016-12-03T09:56:20.582Z,6.89
2016-12-03T09:57:20.242Z,7.63
2016-12-03T09:58:20.515Z,7.87
2016-12-03T09:59:20.176Z,8.19
2016-12-03T10:00:20.443Z,8.16
2016-12-03T10:01:20.415Z,8
2016-12-03T10:02:20.372Z,7.9
2016-12-03T10:03:20.039Z,7.77
2016-12-03T10:04:20.001Z,7.97
2016-12-03T10:05:19.967Z,8.23
2016-12-03T10:06:19.932Z,8.61
2016-12-03T10:07:19.897Z,8.4
2016-12-03T10:08:20.193Z,7.87
2016-12-03T10:09:19.826Z,7.45
2016-12-03T10:10:20.097Z,7.09
2016-12-03T10:11:20.064Z,7.05
2016-12-03T10:12:19.725Z,6.99
2016-12-03T10:13:19.991Z,7.24
2016-12-03T10:14:19.651Z,7.3
2016-12-03T10:15:19.920Z,7.16
2016-12-03T10:16:19.583Z,7.07
2016-12-03T10:17:19.543Z,6.76
2016-12-03T10:18:19.816Z,6.54
2016-12-03T10:19:19.476Z,6.4
2016-12-03T10:20:19.741Z,6.33
2016-12-03T10:21:19.705Z,6
2016-12-03T10:22:19.380Z,5.74
2016-12-03T10:23:19.633Z,5.43
2016-12-03T10:24:19.596Z,5.15
2016-12-03T10:25:19.559Z,4.82
2016-12-03T10:26:19.521Z,4.75
2016-12-03T10:27:19.495Z,4.58
2016-12-03T10:28:19.450Z,4.47
2016-12-03T10:29:19.408Z,4.6
2016-12-03T10:30:19.066Z,4.45
2016-12-03T10:31:19.334Z,4.44
2016-12-03T10:32:19.295Z,4.4
2016-12-03T10:33:18.954Z,4.44
2016-12-03T10:34:19.227Z,4.34
2016-12-03T10:35:19.188Z,4.2
2016-12-03T10:36:18.849Z,4.32
2016-12-03T10:37:18.796Z,4.5
2016-12-03T10:38:18.763Z,4.59
2016-12-03T10:39:19.022Z,5.09
2016-12-03T10:40:18.988Z,5.48
2016-12-03T10:41:18.645Z,5.42
2016-12-03T10:42:18.606Z,5.3
2016-12-03T10:43:18.872Z,5.18
2016-12-03T10:44:18.828Z,5.02
2016-12-03T10:45:18.787Z,4.89
2016-12-03T10:46:18.449Z,4.96
2016-12-03T10:47:18.415Z,5.35
2016-12-03T10:48:18.373Z,5.82
2016-12-03T10:49:18.632Z,6.59
2016-12-03T10:50:18.595Z,7.55
2016-12-03T10:51:18.560Z,8.19
2016-12-03T10:52:18.517Z,9.14
2016-12-03T10:53:18.205Z,9.81
2016-12-03T10:54:18.139Z,10.09
2016-12-03T10:55:18.104Z,10.05
2016-12-03T10:56:18.064Z,9.9
2016-12-03T10:57:18.029Z,10.09
2016-12-03T10:58:18.290Z,10.36
2016-12-03T10:59:18.254Z,10.63
2016-12-03T11:00:18.215Z,10.78
2016-12-03T11:01:18.180Z,10.94
2016-12-03T11:02:18.144Z,11.04
2016-12-03T11:03:17.808Z,10.68
2016-12-03T11:04:18.068Z,10.48
2016-12-03T11:05:18.034Z,10.22
2016-12-03T11:06:17.698Z,9.93
2016-12-03T11:07:17.965Z,9.91
2016-12-03T11:08:17.927Z,10.27
2016-12-03T11:09:17.895Z,10.3
2016-12-03T11:10:17.855Z,10.74
2016-12-03T11:11:17.824Z,10.76
2016-12-03T11:12:17.784Z,10.94
2016-12-03T11:13:17.750Z,10.68
2016-12-03T11:14:17.716Z,10.27
2016-12-03T11:15:17.683Z,10.14
2016-12-03T11:16:17.340Z,9.66
2016-12-03T11:17:17.609Z,9.33
2016-12-03T11:18:17.575Z,9.36
2016-12-03T11:19:17.236Z,9.93
2016-12-03T11:20:17.202Z,9.84
2016-12-03T11:21:16.873Z,9.72
2016-12-03T11:22:17.128Z,9.53
2016-12-03T11:23:16.791Z,9.46
2016-12-03T11:24:17.361Z,9.65
2016-12-03T11:25:17.321Z,9.57
2016-12-03T11:26:16.987Z,9.75
2016-12-03T11:27:17.252Z,9.83
2016-12-03T11:28:17.218Z,9.99
2016-12-03T11:29:17.182Z,9.91
2016-12-03T11:30:17.144Z,10.01
2016-12-03T11:31:17.113Z,9.86
2016-12-03T11:32:17.076Z,9.91
2016-12-03T11:33:17.036Z,10.18
2016-12-03T11:34:16.699Z,10.14
2016-12-03T11:35:16.665Z,10.26
2016-12-03T11:36:16.927Z,10.18
2016-12-03T11:37:16.886Z,10.2
2016-12-03T11:38:16.854Z,10.27
2016-12-03T11:39:16.543Z,10.53
2016-12-03T11:40:16.478Z,10.36
2016-12-03T11:41:16.744Z,10.34
2016-12-03T11:42:16.403Z,10.3
2016-12-03T11:43:16.367Z,10.3
2016-12-03T11:44:16.634Z,10.15
2016-12-03T11:45:16.590Z,10.15
2016-12-03T11:46:16.556Z,10.33
2016-12-03T11:47:16.218Z,10.47
2016-12-03T11:48:16.179Z,10.53
2016-12-03T11:49:16.137Z,10.33
2016-12-03T11:50:16.101Z,10.11
2016-12-03T11:51:15.767Z,10.09
2016-12-03T11:52:16.025Z,9.97
2016-12-03T11:53:16.293Z,10.04
2016-12-03T11:54:15.949Z,10.2
2016-12-03T11:55:16.215Z,10.02
2016-12-03T11:56:16.181Z,9.54
2016-12-03T11:57:16.137Z,9.2
2016-12-03T11:58:15.794Z,8.92
2016-12-03T11:59:16.056Z,9.05
2016-12-03T12:00:16.053Z,9.11
2016-12-03T12:01:15.978Z,8.94
2016-12-03T12:02:15.946Z,8.79
2016-12-03T12:03:15.904Z,8.79
2016-12-03T12:04:15.262Z,8.59
2016-12-03T12:05:15.225Z,8.28
2016-12-03T12:06:15.786Z,8
2016-12-03T12:07:15.446Z,7.74
2016-12-03T12:08:15.109Z,7.52
2016-12-03T12:09:15.674Z,7.37
2016-12-03T12:10:15.634Z,7.17
2016-12-03T12:11:15.295Z,7.07
2016-12-03T12:12:15.555Z,6.88
2016-12-03T12:13:15.223Z,6.71
2016-12-03T12:14:15.173Z,6.7
2016-12-03T12:15:15.437Z,6.69
2016-12-03T12:16:15.103Z,6.51
2016-12-03T12:17:14.752Z,6.56
2016-12-03T12:18:15.317Z,6.41
2016-12-03T12:19:15.280Z,6.38
2016-12-03T12:20:14.939Z,6.51
2016-12-03T12:21:15.227Z,6.62
2016-12-03T12:22:14.857Z,6.7
2016-12-03T12:23:15.123Z,6.66
2016-12-03T12:24:15.081Z,6.38
2016-12-03T12:25:15.046Z,6.17
2016-12-03T12:26:14.699Z,6.09
2016-12-03T12:27:14.661Z,6.04
2016-12-03T12:28:14.628Z,6.11
2016-12-03T12:29:14.889Z,6.22
2016-12-03T12:30:14.274Z,6.21
2016-12-03T12:31:14.815Z,6.22
2016-12-03T12:32:14.766Z,6.34
2016-12-03T12:33:14.122Z,6.4
2016-12-03T12:34:14.388Z,6.51
2016-12-03T12:35:14.354Z,6.59
2016-12-03T12:36:14.306Z,6.54
2016-12-03T12:37:14.570Z,6.56
2016-12-03T12:38:14.529Z,6.49
2016-12-03T12:39:14.490Z,6.25
2016-12-03T12:40:14.454Z,6.09
2016-12-03T12:41:14.415Z,6.17
2016-12-03T12:42:14.373Z,6.19
2016-12-03T12:43:14.330Z,6.08
2016-12-03T12:44:14.292Z,6.15
2016-12-03T12:45:14.254Z,6.12
2016-12-03T12:46:13.918Z,6.12
2016-12-03T12:47:14.172Z,6.14
2016-12-03T12:48:14.136Z,6.22
2016-12-03T12:49:14.100Z,6.21
2016-12-03T12:50:14.065Z,6.19
2016-12-03T12:51:14.028Z,6.15
2016-12-03T12:52:13.679Z,6.11
2016-12-03T12:53:13.636Z,6.15
2016-12-03T12:54:13.905Z,6.14
2016-12-03T12:55:13.857Z,6.03
2016-12-03T12:56:13.516Z,6.03
2016-12-03T12:57:13.786Z,5.85
2016-12-03T12:58:13.734Z,5.89
2016-12-03T12:59:13.096Z,5.89
2016-12-03T13:00:13.658Z,5.81
2016-12-03T13:01:13.624Z,5.93
2016-12-03T13:02:13.574Z,5.89
2016-12-03T13:03:13.537Z,5.82
2016-12-03T13:04:13.195Z,5.86
2016-12-03T13:05:13.459Z,5.83
2016-12-03T13:06:13.427Z,5.85
2016-12-03T13:07:13.078Z,5.78
2016-12-03T13:08:13.337Z,5.82
2016-12-03T13:09:13.301Z,5.93
2016-12-03T13:10:13.257Z,5.75
2016-12-03T13:11:12.918Z,5.85
2016-12-03T13:12:12.876Z,5.91
2016-12-03T13:13:12.835Z,5.97
2016-12-03T13:14:13.100Z,6.01
2016-12-03T13:15:12.757Z,6.11
2016-12-03T13:16:12.724Z,6.09
2016-12-03T13:17:12.673Z,6.15
2016-12-03T13:18:12.938Z,6.06
2016-12-03T13:19:12.597Z,6.09
2016-12-03T13:20:12.859Z,5.99
2016-12-03T13:21:12.817Z,5.97